This is the latest recevied weather packets stored in our database for station/object KR4BRU. If no packets are shown the sender has not sent any weather packets the latest 10 day(s).
| Time | Temp. | Humidity | Pressure | Rain* | Wind** | Luminosity | Snow |
|---|---|---|---|---|---|---|---|
| 1777484248 | 27.78° C | 60% | 1008.2 hPa | 0 mm | - | 995 W/m² | - |
| 1777483646 | 27.22° C | 61% | 1008.4 hPa | 0 mm | - | 1109 W/m² | - |
| 1777483043 | 27.78° C | 60% | 1008.8 hPa | 0 mm | - | 518 W/m² | - |
| 1777482442 | 26.67° C | 62% | 1008.7 hPa | 0 mm | - | 1023 W/m² | - |
| 1777481837 | 26.67° C | 62% | 1008.9 hPa | 0 mm | - | 899 W/m² | - |
| 1777481237 | 26.11° C | 64% | 1009.3 hPa | 0 mm | - | 232 W/m² | - |
| 1777480636 | 25.56° C | 64% | 1009.4 hPa | 0 mm | - | 600 W/m² | - |
| 1777480035 | 25° C | 68% | 1009.3 hPa | 0 mm | - | 897 W/m² | - |
| 1777479430 | 24.44° C | 70% | 1009.5 hPa | 0 mm | - | 592 W/m² | - |
| 1777478829 | 24.44° C | 70% | 1009.4 hPa | 0 mm | - | 240 W/m² | - |
| 1777478228 | 25° C | 66% | 1009.5 hPa | 0 mm | - | 291 W/m² | - |
| 1777477625 | 25° C | 68% | 1009.3 hPa | 0 mm | - | 762 W/m² | - |
| 1777477024 | 23.33° C | 75% | 1009.8 hPa | 0 mm | - | 876 W/m² | - |
| 1777476424 | 22.78° C | 75% | 1009.6 hPa | 0 mm | - | 261 W/m² | - |
| 1777475822 | 22.78° C | 76% | 1009.8 hPa | 0 mm | - | 125 W/m² | - |
| 1777475221 | 21.67° C | 80% | 1009.8 hPa | 0 mm | - | 279 W/m² | - |
| 1777474618 | 20.56° C | 82% | 1010 hPa | 0 mm | - | 146 W/m² | - |
| 1777474016 | 20.56° C | 82% | 1010 hPa | 0 mm | - | 167 W/m² | - |
| 1777473416 | 20° C | 83% | 1009.9 hPa | 0 mm | - | 155 W/m² | - |
| 1777472815 | 19.44° C | 84% | 1010 hPa | 0 mm | - | 128 W/m² | - |
| 1777472215 | 19.44° C | 84% | 1010.1 hPa | 0 mm | - | 89 W/m² | - |
| 1777471614 | 19.44° C | 84% | 1010.1 hPa | 0 mm | - | 71 W/m² | - |
| 1777471012 | 19.44° C | 83% | 1010.1 hPa | 0 mm | - | 76 W/m² | - |
| 1777470411 | 19.44° C | 84% | 1010 hPa | 0 mm | - | 117 W/m² | - |
| 1777469809 | 19.44° C | 83% | 1009.8 hPa | 0 mm | - | 78 W/m² | - |
* Rain latest hour (hover to see other rain measurements)
** Current wind speed in m/s (hover to see current wind gust speed)